Time;durP1;ratioP1;P1;durP2;ratioP2;P2;SDS_P1;SDS_P2;PMS_P1;PMS_P2;Temp;Humidity;BMP_temperature;BMP_pressure;BME280_temperature;BME280_humidity;BME280_pressure;Samples;Min_cycle;Max_cycle;Signal;HPM_P1;HPM_P2
2024/01/18 00:02:05;;;;;;;10.00;4.30;;;;;;;12.04;60.37;101181.52;106344;1275;25433;-51
2024/01/18 00:04:32;;;;;;;16.30;5.40;;;;;;;12.06;60.33;101180.25;106772;1260;25415;-51
2024/01/18 00:06:59;;;;;;;11.10;4.20;;;;;;;12.06;60.33;101180.42;106745;1260;25363;-51
2024/01/18 00:09:27;;;;;;;9.30;4.40;;;;;;;12.06;60.31;101176.59;106781;1260;25335;-51
2024/01/18 00:11:54;;;;;;;17.70;6.10;;;;;;;12.06;60.32;101175.55;106721;1265;25335;-51
2024/01/18 00:14:21;;;;;;;14.30;4.60;;;;;;;12.05;60.40;101170.20;106812;1260;25328;-51
2024/01/18 00:16:48;;;;;;;14.90;5.10;;;;;;;12.05;60.38;101168.98;106715;1261;25401;-52
2024/01/18 00:19:15;;;;;;;10.00;5.10;;;;;;;12.04;60.45;101162.73;106677;1260;25328;-51
2024/01/18 00:21:42;;;;;;;21.20;5.50;;;;;;;12.04;60.48;101159.43;106679;1262;25370;-51
2024/01/18 00:24:10;;;;;;;17.30;5.80;;;;;;;12.03;60.64;101153.02;106729;1261;25366;-51
2024/01/18 00:26:37;;;;;;;15.60;4.90;;;;;;;12.04;60.56;101151.10;106877;1262;25564;-51
2024/01/18 00:29:04;;;;;;;11.90;4.60;;;;;;;12.04;60.64;101145.70;106084;1261;1003690;-51
2024/01/18 00:31:31;;;;;;;18.20;6.20;;;;;;;12.04;60.82;101142.91;106732;1259;25346;-51
2024/01/18 00:33:58;;;;;;;16.60;5.50;;;;;;;12.05;60.74;101133.49;106002;1260;1003195;-51
2024/01/18 00:36:27;;;;;;;15.30;5.20;;;;;;;12.06;60.75;101131.22;106744;1256;25331;-53
2024/01/18 00:38:54;;;;;;;14.30;5.10;;;;;;;12.07;60.76;101129.97;106735;1265;22545;-51
2024/01/18 00:41:21;;;;;;;14.10;5.40;;;;;;;12.08;60.75;101126.84;106683;1256;22530;-52
2024/01/18 00:43:48;;;;;;;9.90;4.90;;;;;;;12.08;60.78;101121.42;105925;1268;1003639;-52
2024/01/18 00:46:21;;;;;;;19.20;6.70;;;;;;;12.09;60.78;101117.43;106680;1272;25348;-53
2024/01/18 00:48:48;;;;;;;27.20;6.10;;;;;;;12.10;60.86;101113.92;106781;1263;24624;-53
2024/01/18 00:51:15;;;;;;;17.20;5.60;;;;;;;12.10;60.71;101111.81;105975;1259;1002593;-53
2024/01/18 00:53:42;;;;;;;16.30;6.00;;;;;;;12.11;60.86;101106.23;106773;1259;25477;-53
2024/01/18 00:56:11;;;;;;;15.60;6.50;;;;;;;12.12;60.87;101100.49;106756;1260;25357;-54
2024/01/18 00:58:39;;;;;;;20.30;6.90;;;;;;;12.12;60.87;101092.12;106728;1261;25366;-53
2024/01/18 01:01:06;;;;;;;18.50;6.20;;;;;;;12.13;60.82;101086.38;106688;1260;23007;-53
2024/01/18 01:03:33;;;;;;;17.60;6.40;;;;;;;12.13;60.85;101083.94;106653;1266;25356;-53
2024/01/18 01:06:00;;;;;;;14.80;6.40;;;;;;;12.14;60.81;101086.52;106482;1268;22543;-51
2024/01/18 01:08:28;;;;;;;18.00;6.20;;;;;;;12.14;60.72;101076.61;106378;1261;25337;-51
2024/01/18 01:10:56;;;;;;;14.90;6.30;;;;;;;12.14;60.76;101070.16;106368;1260;25350;-52
2024/01/18 01:13:23;;;;;;;14.30;6.00;;;;;;;12.14;60.70;101067.56;106742;1268;25325;-52
2024/01/18 01:15:50;;;;;;;13.70;6.00;;;;;;;12.14;60.74;101064.96;106383;1272;25335;-53
2024/01/18 01:18:17;;;;;;;18.40;7.00;;;;;;;12.14;60.80;101066.86;106799;1261;25363;-52
2024/01/18 01:20:44;;;;;;;17.40;6.20;;;;;;;12.14;60.80;101068.25;106840;1261;25363;-52
2024/01/18 01:23:11;;;;;;;13.30;5.80;;;;;;;12.14;60.85;101070.33;106664;1259;25410;-52
2024/01/18 01:25:38;;;;;;;18.90;6.10;;;;;;;12.14;60.87;101068.77;106762;1260;25520;-52
2024/01/18 01:28:06;;;;;;;16.70;6.50;;;;;;;12.15;60.98;101067.54;106537;1262;25416;-51
2024/01/18 01:30:33;;;;;;;21.10;6.40;;;;;;;12.16;60.92;101065.44;106735;1265;25339;-53
2024/01/18 01:33:00;;;;;;;22.10;6.80;;;;;;;12.17;60.93;101062.29;106746;1257;25517;-52
2024/01/18 01:35:27;;;;;;;13.60;5.90;;;;;;;12.18;60.93;101061.72;106821;1259;25512;-54
2024/01/18 01:37:54;;;;;;;17.30;7.30;;;;;;;12.20;60.85;101060.82;106734;1265;24192;-52
2024/01/18 01:40:21;;;;;;;16.00;6.20;;;;;;;12.21;60.83;101057.48;106727;1264;25332;-52
2024/01/18 01:42:48;;;;;;;15.80;6.90;;;;;;;12.22;60.79;101051.01;106754;1260;25338;-51
2024/01/18 01:45:16;;;;;;;18.60;6.70;;;;;;;12.24;60.70;101050.81;106807;1261;25335;-51
2024/01/18 01:47:43;;;;;;;19.10;6.60;;;;;;;12.25;60.73;101043.30;106447;1264;25478;-51
2024/01/18 01:50:10;;;;;;;14.40;7.20;;;;;;;12.27;60.63;101036.14;106770;1259;25526;-51
2024/01/18 01:52:38;;;;;;;16.40;6.50;;;;;;;12.28;60.65;101030.17;106801;1256;24201;-51
2024/01/18 01:55:09;;;;;;;22.40;6.80;;;;;;;12.29;60.60;101015.55;106723;1261;25353;-51
2024/01/18 01:57:42;;;;;;;20.60;6.30;;;;;;;12.31;60.62;101008.89;106782;1259;25488;-51
2024/01/18 02:00:12;;;;;;;16.90;6.70;;;;;;;12.33;60.63;101001.55;106783;1256;24182;-51
2024/01/18 02:02:40;;;;;;;20.10;6.80;;;;;;;12.34;60.60;100998.91;106752;1260;25478;-51
2024/01/18 02:05:08;;;;;;;20.70;7.50;;;;;;;12.35;60.59;100994.52;106791;1264;25328;-51
2024/01/18 02:07:38;;;;;;;19.80;7.60;;;;;;;12.34;60.55;100992.63;106706;1259;25328;-51
2024/01/18 02:10:06;;;;;;;17.60;6.40;;;;;;;12.35;60.62;100988.08;106644;1262;25507;-51
2024/01/18 02:12:34;;;;;;;17.20;7.30;;;;;;;12.38;60.61;100985.05;106436;1262;24239;-51
2024/01/18 02:15:02;;;;;;;16.40;6.40;;;;;;;12.39;60.58;100981.88;106665;1261;25315;-53
2024/01/18 02:17:29;;;;;;;23.70;6.80;;;;;;;12.40;60.55;100977.52;106544;1271;23962;-53
2024/01/18 02:19:56;;;;;;;24.10;6.40;;;;;;;12.41;60.57;100972.27;106745;1259;25453;-53
2024/01/18 02:22:26;;;;;;;15.60;6.80;;;;;;;12.42;60.55;100967.39;106663;1259;25488;-53
2024/01/18 02:25:19;;;;;;;19.60;6.60;;;;;;;12.43;60.53;100961.79;106676;1260;24340;-53
2024/01/18 02:27:46;;;;;;;19.80;7.30;;;;;;;12.44;60.50;100956.55;106000;1260;1003012;-53
2024/01/18 02:30:13;;;;;;;20.70;7.00;;;;;;;12.45;60.42;100950.77;106724;1259;25467;-53
2024/01/18 02:32:40;;;;;;;16.90;6.60;;;;;;;12.47;60.43;100946.38;106731;1260;25390;-52
2024/01/18 02:35:08;;;;;;;18.90;6.70;;;;;;;12.44;60.55;100944.70;106565;1259;25431;-53
2024/01/18 02:37:36;;;;;;;20.20;7.10;;;;;;;12.48;60.44;100938.51;106711;1258;25339;-53
2024/01/18 02:40:03;;;;;;;14.80;6.90;;;;;;;12.51;60.35;100933.91;106723;1264;25419;-53
2024/01/18 02:42:30;;;;;;;22.50;8.20;;;;;;;12.52;60.36;100927.95;106390;1260;25424;-52
2024/01/18 02:44:59;;;;;;;20.20;7.50;;;;;;;12.53;60.34;100922.36;106577;1264;25488;-52
2024/01/18 02:47:26;;;;;;;20.00;7.50;;;;;;;12.54;60.39;100919.90;106760;1260;22531;-52
2024/01/18 02:49:54;;;;;;;18.80;7.90;;;;;;;12.55;60.33;100913.77;106682;1258;25338;-52
2024/01/18 02:52:22;;;;;;;25.40;7.40;;;;;;;12.55;60.37;100911.85;106685;1262;25366;-52
2024/01/18 02:54:48;;;;;;;16.50;7.10;;;;;;;12.55;60.37;100913.94;105721;1264;1003822;-52
2024/01/18 02:57:15;;;;;;;23.50;8.30;;;;;;;12.57;60.33;100911.64;106580;1262;25355;-52
2024/01/18 02:59:43;;;;;;;23.50;7.40;;;;;;;12.57;60.29;100906.42;105656;1265;1003656;-52
2024/01/18 03:02:09;;;;;;;22.60;7.50;;;;;;;12.58;60.30;100900.65;106765;1268;25360;-53
2024/01/18 03:04:37;;;;;;;17.00;7.70;;;;;;;12.59;60.31;100901.67;106548;1262;24211;-56
2024/01/18 03:07:04;;;;;;;22.10;8.20;;;;;;;12.59;60.39;100898.02;106327;1278;25351;-53
2024/01/18 03:09:32;;;;;;;17.50;8.30;;;;;;;12.60;60.42;100898.84;106440;1259;25329;-53
2024/01/18 03:11:59;;;;;;;17.80;8.10;;;;;;;12.61;60.43;100897.78;106786;1262;25336;-51
2024/01/18 03:14:26;;;;;;;21.90;7.80;;;;;;;12.62;60.48;100899.31;106719;1261;22532;-53
2024/01/18 03:16:53;;;;;;;19.50;8.40;;;;;;;12.63;60.41;100902.95;106685;1272;25339;-51
2024/01/18 03:19:20;;;;;;;16.00;8.20;;;;;;;12.65;60.43;100906.54;106812;1264;25366;-51
2024/01/18 03:21:47;;;;;;;20.40;8.30;;;;;;;12.66;60.40;100907.55;106755;1272;25478;-52
2024/01/18 03:24:14;;;;;;;27.50;8.60;;;;;;;12.67;60.44;100909.61;105812;1261;1003594;-52
2024/01/18 03:26:41;;;;;;;20.50;9.30;;;;;;;12.69;60.51;100911.66;106471;1259;24215;-51
2024/01/18 03:29:09;;;;;;;25.90;9.00;;;;;;;12.71;60.33;100913.16;106303;1264;25363;-51
2024/01/18 03:31:36;;;;;;;19.10;9.10;;;;;;;12.72;60.32;100913.47;106506;1262;25366;-52
2024/01/18 03:34:03;;;;;;;21.50;8.20;;;;;;;12.74;60.23;100909.58;106517;1262;25366;-53
2024/01/18 03:36:31;;;;;;;30.20;9.40;;;;;;;12.76;60.22;100907.09;106563;1257;22585;-53
2024/01/18 03:38:58;;;;;;;26.30;9.60;;;;;;;12.77;60.11;100902.37;106240;1272;22622;-52
2024/01/18 03:41:26;;;;;;;24.00;8.90;;;;;;;12.79;60.08;100898.48;106595;1260;25415;-52
2024/01/18 03:43:52;;;;;;;25.70;9.60;;;;;;;12.80;60.00;100890.45;106734;1269;25338;-53
2024/01/18 03:46:19;;;;;;;25.60;8.80;;;;;;;12.80;59.97;100882.59;106405;1264;25342;-51
2024/01/18 03:48:48;;;;;;;22.30;8.60;;;;;;;12.80;59.95;100876.15;106630;1262;25351;-51
2024/01/18 03:51:17;;;;;;;18.80;9.60;;;;;;;12.81;59.97;100865.52;106390;1278;25488;-51
2024/01/18 03:53:44;;;;;;;17.90;7.60;;;;;;;12.80;60.13;100861.18;106753;1269;25328;-52
2024/01/18 03:56:12;;;;;;;24.10;8.90;;;;;;;12.81;60.23;100865.88;106660;1266;25418;-51
2024/01/18 03:58:41;;;;;;;25.60;9.30;;;;;;;12.81;60.23;100868.83;106723;1265;22541;-52
2024/01/18 04:01:08;;;;;;;27.10;9.80;;;;;;;12.80;60.24;100868.67;106745;1260;24228;-51
2024/01/18 04:03:35;;;;;;;20.90;8.00;;;;;;;12.81;60.19;100859.27;106784;1272;22698;-51
2024/01/18 04:06:03;;;;;;;24.00;8.20;;;;;;;12.81;60.14;100856.82;106493;1262;25346;-51
2024/01/18 04:08:30;;;;;;;22.90;8.10;;;;;;;12.80;60.15;100848.30;106507;1259;24500;-52
2024/01/18 04:10:57;;;;;;;30.80;9.00;;;;;;;12.80;60.14;100840.12;106670;1262;25447;-52
2024/01/18 04:13:24;;;;;;;30.00;9.80;;;;;;;12.79;60.10;100837.02;106046;1268;1003466;-51
2024/01/18 04:15:52;;;;;;;22.40;8.00;;;;;;;12.80;60.11;100835.24;106811;1257;23337;-51
2024/01/18 04:18:19;;;;;;;18.30;8.40;;;;;;;12.79;60.16;100830.77;106062;1259;1015552;-51
2024/01/18 04:20:46;;;;;;;18.50;8.00;;;;;;;12.78;60.27;100830.95;106720;1259;25788;-51
2024/01/18 04:23:13;;;;;;;21.60;8.00;;;;;;;12.78;60.18;100824.52;105616;1264;1003405;-51
2024/01/18 04:25:41;;;;;;;20.70;9.00;;;;;;;12.78;60.19;100822.44;106756;1259;25791;-53
2024/01/18 04:28:08;;;;;;;20.50;8.00;;;;;;;12.78;60.17;100823.30;106773;1260;25357;-53
2024/01/18 04:30:35;;;;;;;20.50;8.10;;;;;;;12.77;60.22;100826.31;106833;1263;25418;-51
2024/01/18 04:33:03;;;;;;;21.90;8.80;;;;;;;12.75;60.24;100826.52;106776;1262;25339;-52
2024/01/18 04:35:30;;;;;;;21.80;8.70;;;;;;;12.75;60.25;100828.11;106719;1260;22960;-53
2024/01/18 04:37:57;;;;;;;26.20;9.30;;;;;;;12.75;60.33;100818.02;105710;1266;1003474;-51
2024/01/18 04:40:24;;;;;;;27.00;8.60;;;;;;;12.75;60.25;100814.16;106368;1277;25366;-51
2024/01/18 04:42:51;;;;;;;18.30;8.70;;;;;;;12.75;60.33;100816.08;106746;1261;25404;-51
2024/01/18 04:45:18;;;;;;;22.90;8.70;;;;;;;12.74;60.29;100814.54;106281;1277;25375;-53
2024/01/18 04:47:45;;;;;;;18.70;8.60;;;;;;;12.74;60.36;100811.42;106417;1262;25433;-51
2024/01/18 04:50:12;;;;;;;21.30;8.70;;;;;;;12.74;60.34;100803.40;106278;1272;25340;-53
2024/01/18 04:52:41;;;;;;;21.40;7.90;;;;;;;12.74;60.40;100798.88;106488;1261;25284;-52
2024/01/18 04:55:09;;;;;;;19.50;7.80;;;;;;;12.74;60.41;100797.33;105901;1258;1002897;-53
2024/01/18 04:57:36;;;;;;;26.40;8.90;;;;;;;12.73;60.46;100792.30;106479;1257;24374;-52
2024/01/18 05:00:10;;;;;;;25.60;9.40;;;;;;;12.72;60.45;100793.02;106285;1262;24195;-52
2024/01/18 05:02:38;;;;;;;28.50;9.00;;;;;;;12.71;60.52;100788.36;106483;1259;25342;-51
2024/01/18 05:05:08;;;;;;;18.80;8.80;;;;;;;12.73;60.60;100782.05;106869;1257;25342;-51
2024/01/18 05:07:35;;;;;;;23.80;8.80;;;;;;;12.73;60.62;100777.68;106727;1260;25696;-52
2024/01/18 05:10:04;;;;;;;23.50;9.80;;;;;;;12.74;60.65;100775.73;106343;1279;25407;-52
2024/01/18 05:12:32;;;;;;;27.50;9.90;;;;;;;12.74;60.66;100771.21;106717;1257;24242;-51
2024/01/18 05:15:00;;;;;;;24.20;9.70;;;;;;;12.74;60.65;100768.59;106384;1276;23905;-51
2024/01/18 05:17:34;;;;;;;19.10;8.30;;;;;;;12.74;60.72;100762.17;106735;1262;25418;-52
2024/01/18 05:20:03;;;;;;;22.20;9.70;;;;;;;12.73;60.70;100761.32;106438;1278;25479;-52
2024/01/18 05:22:31;;;;;;;27.50;10.70;;;;;;;12.73;60.67;100762.20;106814;1261;22612;-52
2024/01/18 05:25:02;;;;;;;23.00;9.60;;;;;;;12.72;60.67;100757.86;106761;1262;25334;-51
2024/01/18 05:27:30;;;;;;;30.70;11.40;;;;;;;12.73;60.85;100755.07;106434;1275;24201;-51
2024/01/18 05:29:57;;;;;;;24.70;10.50;;;;;;;12.73;60.79;100750.87;106562;1263;25343;-51
2024/01/18 05:32:25;;;;;;;18.50;9.80;;;;;;;12.74;60.77;100749.44;106739;1261;25306;-51
2024/01/18 05:34:52;;;;;;;30.20;10.90;;;;;;;12.74;60.84;100742.33;106682;1260;25366;-51
2024/01/18 05:37:22;;;;;;;26.10;10.60;;;;;;;12.74;60.91;100747.88;106750;1260;25418;-51
2024/01/18 05:39:52;;;;;;;27.90;12.10;;;;;;;12.74;60.79;100738.31;106345;1262;25397;-51
2024/01/18 05:42:20;;;;;;;23.40;10.80;;;;;;;12.74;60.82;100732.04;106490;1262;25418;-51
2024/01/18 05:44:47;;;;;;;26.40;11.00;;;;;;;12.73;60.81;100728.94;106424;1272;25339;-51
2024/01/18 05:47:14;;;;;;;28.10;12.00;;;;;;;12.73;60.79;100728.79;106340;1262;25533;-51
2024/01/18 05:49:41;;;;;;;24.10;10.40;;;;;;;12.73;60.83;100726.70;105682;1267;1003060;-53
2024/01/18 05:52:08;;;;;;;26.10;10.90;;;;;;;12.73;60.85;100724.26;106355;1262;25367;-51
2024/01/18 05:54:35;;;;;;;23.40;10.90;;;;;;;12.72;60.91;100717.30;106599;1262;25492;-51
2024/01/18 05:57:04;;;;;;;28.20;11.60;;;;;;;12.74;60.95;100718.65;106560;1270;25367;-51
2024/01/18 05:59:31;;;;;;;28.80;12.00;;;;;;;12.74;60.95;100716.02;106807;1260;22535;-51
2024/01/18 06:01:58;;;;;;;18.60;10.70;;;;;;;12.75;61.02;100716.71;106743;1268;25366;-52
2024/01/18 06:04:26;;;;;;;27.10;12.10;;;;;;;12.76;60.97;100717.02;106836;1260;25275;-53
2024/01/18 06:06:53;;;;;;;38.80;13.40;;;;;;;12.76;60.94;100711.95;106756;1259;25233;-51
2024/01/18 06:09:20;;;;;;;29.20;12.90;;;;;;;12.77;60.95;100705.16;106767;1260;25488;-52
2024/01/18 06:11:48;;;;;;;29.00;12.20;;;;;;;12.77;60.94;100705.14;106692;1272;25346;-51
2024/01/18 06:14:17;;;;;;;24.80;11.90;;;;;;;12.77;61.00;100706.00;106734;1263;25488;-51
2024/01/18 06:16:46;;;;;;;26.20;13.00;;;;;;;12.77;60.98;100700.96;106730;1262;23414;-52
2024/01/18 06:19:13;;;;;;;27.50;12.90;;;;;;;12.77;60.99;100697.83;106696;1262;22519;-51
2024/01/18 06:21:43;;;;;;;28.90;13.70;;;;;;;12.77;61.00;100692.42;106890;1262;25360;-51
2024/01/18 06:24:10;;;;;;;30.30;13.30;;;;;;;12.77;61.04;100686.68;106514;1265;25328;-51
2024/01/18 06:26:38;;;;;;;29.90;12.70;;;;;;;12.77;61.07;100680.07;106699;1262;25440;-53
2024/01/18 06:29:06;;;;;;;33.50;15.20;;;;;;;12.78;61.09;100675.53;106717;1260;25328;-53
2024/01/18 06:31:33;;;;;;;31.80;13.80;;;;;;;12.78;61.13;100675.70;106654;1275;22639;-51
2024/01/18 06:34:00;;;;;;;36.10;15.50;;;;;;;12.79;61.16;100674.98;106762;1276;25354;-51
2024/01/18 06:36:27;;;;;;;35.70;14.50;;;;;;;12.81;61.16;100675.43;106500;1266;22550;-53
2024/01/18 06:38:54;;;;;;;30.10;15.30;;;;;;;12.83;61.20;100673.27;105990;1266;1015582;-52
2024/01/18 06:41:23;;;;;;;35.70;15.10;;;;;;;12.84;61.24;100672.70;106432;1265;25356;-54
2024/01/18 06:43:50;;;;;;;33.40;16.20;;;;;;;12.85;61.25;100670.77;105759;1275;1003608;-52
2024/01/18 06:46:17;;;;;;;40.50;16.80;;;;;;;12.87;61.38;100668.42;106728;1262;25441;-52
2024/01/18 06:48:52;;;;;;;31.60;16.70;;;;;;;12.90;61.41;100667.14;106406;1262;25526;-52
2024/01/18 06:51:22;;;;;;;34.60;16.20;;;;;;;12.93;61.42;100662.31;106760;1269;25404;-53
2024/01/18 06:53:51;;;;;;;35.60;16.90;;;;;;;12.97;61.48;100664.10;106608;1273;25399;-51
2024/01/18 06:56:18;;;;;;;33.90;16.50;;;;;;;13.02;61.42;100659.77;106804;1272;22573;-51
2024/01/18 06:58:45;;;;;;;39.20;16.70;;;;;;;13.06;61.37;100658.60;106531;1275;25359;-52
2024/01/18 07:01:14;;;;;;;43.10;16.80;;;;;;;13.10;61.39;100655.69;106418;1273;25399;-51
2024/01/18 07:03:42;;;;;;;39.10;17.30;;;;;;;13.15;61.40;100649.98;106367;1272;25366;-52
2024/01/18 07:06:11;;;;;;;38.60;18.00;;;;;;;13.19;61.30;100647.92;106556;1276;25412;-51
2024/01/18 07:08:38;;;;;;;35.60;17.50;;;;;;;13.22;61.25;100643.45;106751;1276;23239;-52
2024/01/18 07:11:05;;;;;;;46.60;20.40;;;;;;;13.25;61.15;100637.27;105852;1279;1003357;-51
2024/01/18 07:13:33;;;;;;;39.80;18.20;;;;;;;13.26;61.12;100635.28;105986;1256;1003156;-52
2024/01/18 07:16:00;;;;;;;34.60;16.80;;;;;;;13.29;61.10;100627.70;106742;1279;25421;-51
2024/01/18 07:18:28;;;;;;;38.00;17.70;;;;;;;13.33;61.05;100627.58;106711;1279;25399;-53
2024/01/18 07:20:55;;;;;;;34.30;18.30;;;;;;;13.36;61.00;100631.82;106760;1260;25449;-53
2024/01/18 07:23:22;;;;;;;39.70;19.10;;;;;;;13.38;60.93;100631.54;106724;1262;25328;-54
2024/01/18 07:25:50;;;;;;;48.20;20.20;;;;;;;13.41;60.88;100629.00;106724;1262;22533;-53
2024/01/18 07:28:19;;;;;;;43.80;19.00;;;;;;;13.44;60.80;100619.86;106744;1263;25373;-53
2024/01/18 07:30:47;;;;;;;40.10;18.70;;;;;;;13.46;60.70;100619.05;106802;1262;25340;-51
2024/01/18 07:33:14;;;;;;;39.00;19.30;;;;;;;13.48;60.65;100614.97;106513;1279;25488;-53
2024/01/18 07:35:42;;;;;;;43.10;20.70;;;;;;;13.49;60.55;100616.52;106467;1264;25328;-52
2024/01/18 07:38:09;;;;;;;39.90;18.70;;;;;;;13.50;60.46;100609.33;106567;1265;24344;-53
2024/01/18 07:40:36;;;;;;;37.30;19.00;;;;;;;13.51;60.39;100607.37;106753;1262;25328;-52
2024/01/18 07:43:03;;;;;;;42.70;18.20;;;;;;;13.52;60.29;100604.20;106745;1262;25328;-53
2024/01/18 07:45:30;;;;;;;38.10;18.20;;;;;;;13.52;60.29;100597.09;106654;1263;25417;-51
2024/01/18 07:47:57;;;;;;;45.10;21.60;;;;;;;13.52;60.26;100596.36;106766;1259;25324;-52
2024/01/18 07:50:24;;;;;;;37.30;19.40;;;;;;;13.53;60.23;100594.08;106591;1259;25331;-52
2024/01/18 07:53:07;;;;;;;36.30;19.10;;;;;;;13.54;60.20;100593.86;106343;1273;25491;-51
2024/01/18 07:55:35;;;;;;;43.00;20.70;;;;;;;13.54;60.21;100593.52;106326;1273;25363;-53
2024/01/18 07:58:02;;;;;;;42.50;21.50;;;;;;;13.54;60.11;100587.60;106387;1259;25415;-52
2024/01/18 08:00:29;;;;;;;41.00;20.50;;;;;;;13.54;60.18;100587.96;106510;1263;25367;-52
2024/01/18 08:02:57;;;;;;;47.90;21.20;;;;;;;13.54;60.08;100591.26;106364;1257;25625;-51
2024/01/18 08:05:24;;;;;;;43.50;21.00;;;;;;;13.54;60.11;100591.27;106491;1260;25254;-52
2024/01/18 08:07:51;;;;;;;47.90;20.80;;;;;;;13.54;60.10;100591.60;106224;1279;25382;-51
2024/01/18 08:10:18;;;;;;;51.10;22.30;;;;;;;13.54;60.16;100587.26;106573;1262;23863;-53
2024/01/18 08:12:47;;;;;;;44.60;22.60;;;;;;;13.55;60.18;100589.30;106553;1272;25435;-52
2024/01/18 08:15:14;;;;;;;48.20;22.30;;;;;;;13.55;60.16;100588.42;106703;1263;25338;-52
2024/01/18 08:17:45;;;;;;;46.60;22.10;;;;;;;13.56;60.07;100585.80;106311;1277;25405;-52
2024/01/18 08:20:12;;;;;;;37.40;20.60;;;;;;;13.55;60.03;100580.22;106328;1275;22538;-51
2024/01/18 08:22:43;;;;;;;46.30;22.10;;;;;;;13.55;60.06;100576.59;106467;1272;25418;-52
2024/01/18 08:25:13;;;;;;;44.30;21.10;;;;;;;13.54;60.05;100574.71;106333;1272;25491;-51
2024/01/18 08:27:41;;;;;;;48.20;21.40;;;;;;;13.53;60.12;100571.77;106806;1262;25328;-52
2024/01/18 08:30:09;;;;;;;46.50;21.80;;;;;;;13.52;60.06;100565.50;106603;1272;24799;-53
2024/01/18 08:32:36;;;;;;;42.40;21.30;;;;;;;13.52;60.12;100562.73;106259;1273;24272;-51
2024/01/18 08:35:07;;;;;;;43.40;21.60;;;;;;;13.52;60.05;100563.79;106677;1276;25392;-52
2024/01/18 08:37:35;;;;;;;45.50;22.30;;;;;;;13.52;60.05;100560.13;106747;1263;25356;-52
2024/01/18 08:40:03;;;;;;;46.50;21.70;;;;;;;13.51;60.13;100560.33;106737;1272;25444;-52
2024/01/18 08:42:30;;;;;;;46.60;21.10;;;;;;;13.51;60.06;100555.96;106820;1259;25401;-52
2024/01/18 08:44:58;;;;;;;48.50;23.00;;;;;;;13.52;60.02;100551.42;106395;1272;25518;-52
2024/01/18 08:47:26;;;;;;;40.00;22.40;;;;;;;13.51;60.11;100548.65;106675;1276;25450;-52
2024/01/18 08:49:53;;;;;;;48.10;21.90;;;;;;;13.51;60.13;100547.08;106635;1272;25328;-52
2024/01/18 08:52:21;;;;;;;39.30;20.90;;;;;;;13.53;60.15;100545.11;106463;1279;25420;-52
2024/01/18 08:54:49;;;;;;;49.40;23.50;;;;;;;13.54;60.12;100539.84;106333;1279;25655;-52
2024/01/18 08:57:18;;;;;;;45.20;23.20;;;;;;;13.55;60.16;100531.77;106466;1276;24221;-52
2024/01/18 08:59:46;;;;;;;49.40;23.50;;;;;;;13.57;60.09;100535.19;106457;1260;25456;-52
2024/01/18 09:02:14;;;;;;;45.10;23.70;;;;;;;13.59;59.92;100532.48;106198;1265;25613;-52
2024/01/18 09:04:50;;;;;;;51.80;24.90;;;;;;;13.60;59.90;100528.98;106274;1276;23864;-52
2024/01/18 09:07:20;;;;;;;40.80;22.90;;;;;;;13.60;59.88;100523.59;106410;1268;24366;-52
2024/01/18 09:09:48;;;;;;;46.40;23.30;;;;;;;13.59;59.87;100516.28;106503;1276;24039;-52
2024/01/18 09:12:15;;;;;;;44.50;22.90;;;;;;;13.60;59.88;100516.24;106746;1273;25328;-52
2024/01/18 09:14:44;;;;;;;46.00;23.70;;;;;;;13.61;59.86;100513.44;106786;1273;25561;-52
2024/01/18 09:17:11;;;;;;;42.40;23.30;;;;;;;13.61;59.79;100510.63;106717;1276;22526;-52
2024/01/18 09:19:38;;;;;;;42.70;22.00;;;;;;;13.62;59.78;100504.34;106730;1273;25525;-52
2024/01/18 09:22:06;;;;;;;46.80;23.50;;;;;;;13.61;59.64;100496.50;106630;1278;22896;-52
2024/01/18 09:24:33;;;;;;;47.70;22.40;;;;;;;13.61;59.66;100494.08;106694;1278;25347;-52
2024/01/18 09:27:00;;;;;;;44.90;23.00;;;;;;;13.61;59.67;100496.70;106689;1257;25339;-52
2024/01/18 09:29:27;;;;;;;50.30;24.10;;;;;;;13.60;59.74;100493.73;106747;1262;25325;-52
2024/01/18 09:31:56;;;;;;;46.50;23.30;;;;;;;13.60;59.60;100484.88;106747;1273;25488;-52
2024/01/18 09:34:23;;;;;;;42.20;22.50;;;;;;;13.60;59.64;100485.56;106709;1272;24186;-52
2024/01/18 09:36:50;;;;;;;42.80;22.80;;;;;;;13.61;59.64;100483.45;106795;1268;25341;-52
2024/01/18 09:39:17;;;;;;;49.60;23.40;;;;;;;13.62;59.60;100483.06;106688;1273;25356;-52
2024/01/18 09:41:52;;;;;;;57.20;26.20;;;;;;;13.62;59.62;100478.15;106763;1265;24217;-51
2024/01/18 09:44:27;;;;;;;46.10;23.00;;;;;;;13.62;59.53;100472.09;106700;1272;22547;-52
2024/01/18 09:46:54;;;;;;;48.30;23.30;;;;;;;13.62;59.56;100470.17;106694;1273;25328;-52
2024/01/18 09:49:21;;;;;;;47.30;22.70;;;;;;;13.62;59.41;100468.74;106483;1272;25386;-52
2024/01/18 09:51:49;;;;;;;49.70;23.40;;;;;;;13.62;59.47;100467.19;106498;1272;25443;-52
2024/01/18 09:54:17;;;;;;;48.30;23.80;;;;;;;13.63;59.58;100469.27;106485;1273;22532;-51
2024/01/18 09:56:45;;;;;;;50.70;24.80;;;;;;;13.63;59.44;100468.89;106289;1273;24227;-52
2024/01/18 09:59:16;;;;;;;44.70;23.80;;;;;;;13.64;59.62;100466.74;106483;1276;22533;-52
2024/01/18 10:01:44;;;;;;;47.00;24.70;;;;;;;13.66;59.65;100467.40;106376;1275;25286;-52
2024/01/18 10:04:12;;;;;;;48.80;22.70;;;;;;;13.68;59.57;100468.17;106276;1276;25331;-52
2024/01/18 10:06:40;;;;;;;51.80;25.00;;;;;;;13.70;59.56;100458.49;106195;1275;25322;-54
2024/01/18 10:09:15;;;;;;;53.60;24.90;;;;;;;13.72;59.51;100453.71;106324;1276;24236;-53
2024/01/18 10:11:46;;;;;;;46.80;23.60;;;;;;;13.73;59.43;100448.98;106375;1274;25340;-53
2024/01/18 10:14:13;;;;;;;43.70;23.10;;;;;;;13.74;59.33;100443.54;106568;1274;25626;-51
2024/01/18 10:16:41;;;;;;;43.00;22.70;;;;;;;13.74;59.23;100437.45;106575;1281;25420;-53
2024/01/18 10:19:14;;;;;;;45.20;22.10;;;;;;;13.75;59.29;100433.05;106641;1278;25433;-53
2024/01/18 10:21:43;;;;;;;44.50;22.50;;;;;;;13.75;59.25;100426.06;106336;1276;25335;-53
2024/01/18 10:24:11;;;;;;;56.00;23.80;;;;;;;13.75;59.19;100421.53;106522;1278;25359;-53
2024/01/18 10:26:39;;;;;;;53.10;23.60;;;;;;;13.75;59.20;100418.57;106475;1281;22612;-53
2024/01/18 10:29:12;;;;;;;50.60;23.40;;;;;;;13.74;59.18;100411.13;106353;1279;24265;-53
2024/01/18 10:31:41;;;;;;;42.80;21.70;;;;;;;13.75;59.10;100410.04;106587;1275;25405;-53
2024/01/18 10:34:08;;;;;;;44.10;23.00;;;;;;;13.74;59.11;100400.84;106795;1273;22671;-53
2024/01/18 10:36:37;;;;;;;48.20;23.00;;;;;;;13.73;59.11;100393.55;106751;1272;25403;-53
2024/01/18 10:39:17;;;;;;;47.30;22.30;;;;;;;13.72;59.07;100390.80;106451;1272;25339;-53
2024/01/18 10:41:45;;;;;;;47.60;23.10;;;;;;;13.71;59.16;100390.31;106761;1274;25519;-52
2024/01/18 10:44:14;;;;;;;46.30;24.10;;;;;;;13.70;59.19;100383.88;106837;1273;22514;-51
2024/01/18 10:46:42;;;;;;;59.10;25.50;;;;;;;13.71;59.24;100381.94;106667;1276;25366;-53
2024/01/18 10:49:09;;;;;;;50.60;22.70;;;;;;;13.72;59.32;100378.22;106465;1272;24247;-52
2024/01/18 10:51:37;;;;;;;45.10;23.70;;;;;;;13.74;59.29;100370.85;106433;1273;24252;-52
2024/01/18 10:54:08;;;;;;;52.60;24.60;;;;;;;13.76;59.37;100366.58;106691;1273;25446;-53
2024/01/18 10:56:52;;;;;;;55.00;24.10;;;;;;;13.78;59.25;100359.17;105968;1279;25408;-53
2024/01/18 10:59:20;;;;;;;49.70;22.60;;;;;;;13.81;59.18;100348.42;106753;1275;25490;-52
2024/01/18 11:01:47;;;;;;;44.00;22.30;;;;;;;13.83;59.15;100343.98;106760;1276;25427;-52
2024/01/18 11:04:14;;;;;;;45.90;22.70;;;;;;;13.86;59.13;100346.48;106467;1273;25491;-52
2024/01/18 11:06:43;;;;;;;38.20;20.90;;;;;;;13.89;59.16;100340.38;106234;1273;23866;-52
2024/01/18 11:09:12;;;;;;;49.30;21.80;;;;;;;13.93;59.02;100338.83;106299;1279;25573;-52